sensor_id;sensor_type;location;lat;lon;timestamp;P1;durP1;ratioP1;P2;durP2;ratioP2
37847;SDS011;23688;33.130;-117.188;2023-04-07T00:02:11;6.80;;;1.98;;
37847;SDS011;23688;33.130;-117.188;2023-04-07T00:04:37;9.52;;;1.77;;
37847;SDS011;23688;33.130;-117.188;2023-04-07T00:07:03;7.63;;;2.38;;
37847;SDS011;23688;33.130;-117.188;2023-04-07T00:09:30;4.13;;;1.83;;
37847;SDS011;23688;33.130;-117.188;2023-04-07T00:11:56;6.32;;;2.05;;
37847;SDS011;23688;33.130;-117.188;2023-04-07T00:14:22;8.48;;;2.15;;
37847;SDS011;23688;33.130;-117.188;2023-04-07T00:16:48;7.35;;;1.77;;
37847;SDS011;23688;33.130;-117.188;2023-04-07T00:19:15;5.32;;;1.92;;
37847;SDS011;23688;33.130;-117.188;2023-04-07T00:21:41;5.60;;;1.80;;
37847;SDS011;23688;33.130;-117.188;2023-04-07T00:24:07;6.82;;;2.03;;
37847;SDS011;23688;33.130;-117.188;2023-04-07T00:26:34;7.78;;;2.00;;
37847;SDS011;23688;33.130;-117.188;2023-04-07T00:29:00;6.05;;;2.97;;
37847;SDS011;23688;33.130;-117.188;2023-04-07T00:31:26;10.65;;;2.72;;
37847;SDS011;23688;33.130;-117.188;2023-04-07T00:33:53;7.85;;;2.80;;
37847;SDS011;23688;33.130;-117.188;2023-04-07T00:36:20;11.50;;;2.97;;
37847;SDS011;23688;33.130;-117.188;2023-04-07T00:38:46;4.80;;;2.00;;
37847;SDS011;23688;33.130;-117.188;2023-04-07T00:41:12;3.47;;;2.13;;
37847;SDS011;23688;33.130;-117.188;2023-04-07T00:43:39;5.28;;;2.13;;
37847;SDS011;23688;33.130;-117.188;2023-04-07T00:46:05;9.38;;;2.05;;
37847;SDS011;23688;33.130;-117.188;2023-04-07T00:48:32;6.28;;;2.15;;
37847;SDS011;23688;33.130;-117.188;2023-04-07T00:50:58;8.02;;;2.35;;
37847;SDS011;23688;33.130;-117.188;2023-04-07T00:53:25;8.23;;;2.40;;
37847;SDS011;23688;33.130;-117.188;2023-04-07T00:55:51;12.18;;;2.10;;
37847;SDS011;23688;33.130;-117.188;2023-04-07T00:58:17;7.63;;;2.10;;
37847;SDS011;23688;33.130;-117.188;2023-04-07T01:00:47;8.02;;;2.67;;
37847;SDS011;23688;33.130;-117.188;2023-04-07T01:03:22;4.63;;;2.20;;
37847;SDS011;23688;33.130;-117.188;2023-04-07T01:06:02;6.30;;;2.15;;
37847;SDS011;23688;33.130;-117.188;2023-04-07T01:11:41;4.75;;;2.30;;
37847;SDS011;23688;33.130;-117.188;2023-04-07T01:14:13;10.18;;;2.10;;
37847;SDS011;23688;33.130;-117.188;2023-04-07T01:16:47;5.00;;;1.80;;
37847;SDS011;23688;33.130;-117.188;2023-04-07T01:22:00;7.80;;;1.83;;
37847;SDS011;23688;33.130;-117.188;2023-04-07T01:27:24;3.33;;;1.60;;
37847;SDS011;23688;33.130;-117.188;2023-04-07T01:30:19;8.00;;;1.90;;
37847;SDS011;23688;33.130;-117.188;2023-04-07T01:32:50;4.55;;;1.50;;
37847;SDS011;23688;33.130;-117.188;2023-04-07T01:35:19;5.25;;;1.85;;
37847;SDS011;23688;33.130;-117.188;2023-04-07T01:37:46;6.85;;;1.83;;
37847;SDS011;23688;33.130;-117.188;2023-04-07T01:40:14;5.07;;;2.15;;
37847;SDS011;23688;33.130;-117.188;2023-04-07T01:42:42;5.13;;;2.38;;
37847;SDS011;23688;33.130;-117.188;2023-04-07T01:45:10;3.30;;;1.60;;
37847;SDS011;23688;33.130;-117.188;2023-04-07T01:47:37;5.72;;;1.88;;
37847;SDS011;23688;33.130;-117.188;2023-04-07T01:50:04;9.70;;;2.03;;
37847;SDS011;23688;33.130;-117.188;2023-04-07T01:52:34;7.05;;;2.20;;
37847;SDS011;23688;33.130;-117.188;2023-04-07T01:55:04;6.13;;;1.85;;
37847;SDS011;23688;33.130;-117.188;2023-04-07T01:57:31;5.40;;;2.00;;
37847;SDS011;23688;33.130;-117.188;2023-04-07T01:59:58;8.32;;;2.20;;
37847;SDS011;23688;33.130;-117.188;2023-04-07T02:02:24;6.50;;;1.70;;
37847;SDS011;23688;33.130;-117.188;2023-04-07T02:04:55;10.02;;;1.55;;
37847;SDS011;23688;33.130;-117.188;2023-04-07T02:07:38;5.28;;;1.80;;
37847;SDS011;23688;33.130;-117.188;2023-04-07T02:10:11;6.30;;;1.63;;
37847;SDS011;23688;33.130;-117.188;2023-04-07T02:12:40;9.93;;;1.98;;
37847;SDS011;23688;33.130;-117.188;2023-04-07T02:15:10;9.50;;;1.98;;
37847;SDS011;23688;33.130;-117.188;2023-04-07T02:17:39;4.82;;;1.80;;
37847;SDS011;23688;33.130;-117.188;2023-04-07T02:22:35;12.57;;;1.90;;
37847;SDS011;23688;33.130;-117.188;2023-04-07T02:25:19;3.88;;;2.10;;
37847;SDS011;23688;33.130;-117.188;2023-04-07T02:27:53;7.00;;;2.15;;
37847;SDS011;23688;33.130;-117.188;2023-04-07T02:30:21;9.75;;;2.75;;
37847;SDS011;23688;33.130;-117.188;2023-04-07T02:32:47;7.18;;;3.00;;
37847;SDS011;23688;33.130;-117.188;2023-04-07T02:35:14;6.57;;;2.13;;
37847;SDS011;23688;33.130;-117.188;2023-04-07T02:37:41;5.50;;;2.20;;
37847;SDS011;23688;33.130;-117.188;2023-04-07T02:40:08;12.10;;;1.42;;
37847;SDS011;23688;33.130;-117.188;2023-04-07T02:42:35;3.90;;;1.95;;
37847;SDS011;23688;33.130;-117.188;2023-04-07T02:45:02;3.75;;;1.55;;
37847;SDS011;23688;33.130;-117.188;2023-04-07T02:47:30;7.05;;;1.92;;
37847;SDS011;23688;33.130;-117.188;2023-04-07T02:49:57;6.22;;;1.45;;
37847;SDS011;23688;33.130;-117.188;2023-04-07T02:52:24;5.25;;;1.73;;
37847;SDS011;23688;33.130;-117.188;2023-04-07T02:54:50;10.45;;;1.85;;
37847;SDS011;23688;33.130;-117.188;2023-04-07T02:57:17;10.00;;;1.75;;
37847;SDS011;23688;33.130;-117.188;2023-04-07T02:59:43;7.30;;;1.70;;
37847;SDS011;23688;33.130;-117.188;2023-04-07T03:02:12;8.38;;;2.40;;
37847;SDS011;23688;33.130;-117.188;2023-04-07T03:04:38;3.63;;;1.73;;
37847;SDS011;23688;33.130;-117.188;2023-04-07T03:07:05;6.53;;;2.35;;
37847;SDS011;23688;33.130;-117.188;2023-04-07T03:09:31;4.90;;;1.60;;
37847;SDS011;23688;33.130;-117.188;2023-04-07T03:11:57;7.22;;;1.70;;
37847;SDS011;23688;33.130;-117.188;2023-04-07T03:14:23;5.07;;;1.67;;
37847;SDS011;23688;33.130;-117.188;2023-04-07T03:16:50;6.20;;;1.63;;
37847;SDS011;23688;33.130;-117.188;2023-04-07T03:19:16;7.72;;;1.88;;
37847;SDS011;23688;33.130;-117.188;2023-04-07T03:21:43;8.65;;;2.22;;
37847;SDS011;23688;33.130;-117.188;2023-04-07T03:24:11;7.20;;;1.90;;
37847;SDS011;23688;33.130;-117.188;2023-04-07T03:26:38;6.45;;;2.15;;
37847;SDS011;23688;33.130;-117.188;2023-04-07T03:29:04;6.07;;;1.80;;
37847;SDS011;23688;33.130;-117.188;2023-04-07T03:34:30;7.70;;;1.95;;
37847;SDS011;23688;33.130;-117.188;2023-04-07T03:36:56;10.63;;;2.13;;
37847;SDS011;23688;33.130;-117.188;2023-04-07T03:39:23;4.93;;;1.85;;
37847;SDS011;23688;33.130;-117.188;2023-04-07T03:41:51;12.03;;;1.60;;
37847;SDS011;23688;33.130;-117.188;2023-04-07T03:44:17;8.57;;;1.65;;
37847;SDS011;23688;33.130;-117.188;2023-04-07T03:46:43;5.80;;;2.00;;
37847;SDS011;23688;33.130;-117.188;2023-04-07T03:49:12;11.13;;;2.05;;
37847;SDS011;23688;33.130;-117.188;2023-04-07T03:51:39;6.18;;;1.98;;
37847;SDS011;23688;33.130;-117.188;2023-04-07T03:54:06;11.88;;;2.13;;
37847;SDS011;23688;33.130;-117.188;2023-04-07T03:56:32;6.55;;;2.38;;
37847;SDS011;23688;33.130;-117.188;2023-04-07T03:58:59;7.43;;;2.67;;
37847;SDS011;23688;33.130;-117.188;2023-04-07T04:01:25;5.53;;;2.30;;
37847;SDS011;23688;33.130;-117.188;2023-04-07T04:03:53;6.80;;;3.30;;
37847;SDS011;23688;33.130;-117.188;2023-04-07T04:06:19;4.88;;;2.70;;
37847;SDS011;23688;33.130;-117.188;2023-04-07T04:08:46;11.07;;;2.80;;
37847;SDS011;23688;33.130;-117.188;2023-04-07T04:11:12;6.30;;;2.78;;
37847;SDS011;23688;33.130;-117.188;2023-04-07T04:13:38;9.05;;;3.13;;
37847;SDS011;23688;33.130;-117.188;2023-04-07T04:16:05;7.95;;;2.83;;
37847;SDS011;23688;33.130;-117.188;2023-04-07T04:18:32;7.82;;;3.08;;
37847;SDS011;23688;33.130;-117.188;2023-04-07T04:20:59;10.38;;;2.75;;
37847;SDS011;23688;33.130;-117.188;2023-04-07T04:23:26;6.50;;;3.25;;
37847;SDS011;23688;33.130;-117.188;2023-04-07T04:25:53;12.47;;;3.70;;
37847;SDS011;23688;33.130;-117.188;2023-04-07T04:28:21;23.40;;;4.18;;
37847;SDS011;23688;33.130;-117.188;2023-04-07T04:30:47;9.90;;;3.00;;
37847;SDS011;23688;33.130;-117.188;2023-04-07T04:33:13;8.88;;;3.78;;
37847;SDS011;23688;33.130;-117.188;2023-04-07T04:35:40;9.15;;;2.95;;
37847;SDS011;23688;33.130;-117.188;2023-04-07T04:38:06;6.50;;;2.78;;
37847;SDS011;23688;33.130;-117.188;2023-04-07T04:40:32;9.00;;;3.10;;
37847;SDS011;23688;33.130;-117.188;2023-04-07T04:43:01;9.73;;;3.28;;
37847;SDS011;23688;33.130;-117.188;2023-04-07T04:45:31;9.70;;;2.65;;
37847;SDS011;23688;33.130;-117.188;2023-04-07T04:47:58;8.27;;;2.42;;
37847;SDS011;23688;33.130;-117.188;2023-04-07T04:50:24;5.40;;;2.90;;
37847;SDS011;23688;33.130;-117.188;2023-04-07T04:52:51;14.40;;;3.13;;
37847;SDS011;23688;33.130;-117.188;2023-04-07T04:55:17;15.90;;;2.75;;
37847;SDS011;23688;33.130;-117.188;2023-04-07T04:57:44;10.57;;;2.88;;
37847;SDS011;23688;33.130;-117.188;2023-04-07T05:00:10;11.75;;;3.42;;
37847;SDS011;23688;33.130;-117.188;2023-04-07T05:02:37;6.40;;;2.95;;
37847;SDS011;23688;33.130;-117.188;2023-04-07T05:05:03;10.80;;;3.20;;
37847;SDS011;23688;33.130;-117.188;2023-04-07T05:07:30;8.32;;;3.10;;
37847;SDS011;23688;33.130;-117.188;2023-04-07T05:09:56;9.73;;;3.22;;
37847;SDS011;23688;33.130;-117.188;2023-04-07T05:12:23;6.90;;;3.35;;
37847;SDS011;23688;33.130;-117.188;2023-04-07T05:14:49;9.57;;;2.70;;
37847;SDS011;23688;33.130;-117.188;2023-04-07T05:17:15;7.97;;;3.13;;
37847;SDS011;23688;33.130;-117.188;2023-04-07T05:19:42;6.25;;;2.60;;
37847;SDS011;23688;33.130;-117.188;2023-04-07T05:22:08;3.95;;;2.00;;
37847;SDS011;23688;33.130;-117.188;2023-04-07T05:24:34;8.50;;;2.45;;
37847;SDS011;23688;33.130;-117.188;2023-04-07T05:27:01;8.73;;;2.75;;
37847;SDS011;23688;33.130;-117.188;2023-04-07T05:29:27;4.55;;;2.20;;
37847;SDS011;23688;33.130;-117.188;2023-04-07T05:31:54;4.45;;;2.10;;
37847;SDS011;23688;33.130;-117.188;2023-04-07T05:34:23;8.07;;;2.45;;
37847;SDS011;23688;33.130;-117.188;2023-04-07T05:36:50;5.57;;;2.10;;
37847;SDS011;23688;33.130;-117.188;2023-04-07T05:39:16;6.25;;;2.90;;
37847;SDS011;23688;33.130;-117.188;2023-04-07T05:41:42;6.53;;;2.88;;
37847;SDS011;23688;33.130;-117.188;2023-04-07T05:44:09;7.85;;;2.40;;
37847;SDS011;23688;33.130;-117.188;2023-04-07T05:46:35;7.47;;;2.72;;
37847;SDS011;23688;33.130;-117.188;2023-04-07T05:49:02;6.40;;;2.60;;
37847;SDS011;23688;33.130;-117.188;2023-04-07T05:51:28;4.47;;;2.65;;
37847;SDS011;23688;33.130;-117.188;2023-04-07T05:53:55;5.13;;;2.60;;
37847;SDS011;23688;33.130;-117.188;2023-04-07T05:56:23;9.05;;;2.47;;
37847;SDS011;23688;33.130;-117.188;2023-04-07T05:58:50;4.25;;;2.13;;
37847;SDS011;23688;33.130;-117.188;2023-04-07T06:01:18;8.40;;;2.50;;
37847;SDS011;23688;33.130;-117.188;2023-04-07T06:03:44;10.18;;;2.40;;
37847;SDS011;23688;33.130;-117.188;2023-04-07T06:06:10;9.10;;;2.30;;
37847;SDS011;23688;33.130;-117.188;2023-04-07T06:08:36;9.90;;;3.35;;
37847;SDS011;23688;33.130;-117.188;2023-04-07T06:11:03;15.63;;;2.08;;
37847;SDS011;23688;33.130;-117.188;2023-04-07T06:13:29;12.18;;;2.13;;
37847;SDS011;23688;33.130;-117.188;2023-04-07T06:15:55;11.18;;;2.80;;
37847;SDS011;23688;33.130;-117.188;2023-04-07T06:18:22;3.55;;;2.53;;
37847;SDS011;23688;33.130;-117.188;2023-04-07T06:20:48;6.05;;;2.00;;
37847;SDS011;23688;33.130;-117.188;2023-04-07T06:23:14;4.25;;;2.08;;
37847;SDS011;23688;33.130;-117.188;2023-04-07T06:25:41;6.78;;;2.60;;
37847;SDS011;23688;33.130;-117.188;2023-04-07T06:28:08;5.78;;;2.50;;
37847;SDS011;23688;33.130;-117.188;2023-04-07T06:30:34;8.20;;;1.95;;
37847;SDS011;23688;33.130;-117.188;2023-04-07T06:33:00;17.42;;;3.63;;
37847;SDS011;23688;33.130;-117.188;2023-04-07T06:35:27;7.95;;;2.33;;
37847;SDS011;23688;33.130;-117.188;2023-04-07T06:37:53;8.85;;;2.90;;
37847;SDS011;23688;33.130;-117.188;2023-04-07T06:40:19;4.80;;;1.95;;
37847;SDS011;23688;33.130;-117.188;2023-04-07T06:42:46;8.10;;;2.55;;
37847;SDS011;23688;33.130;-117.188;2023-04-07T06:45:12;12.20;;;2.55;;
37847;SDS011;23688;33.130;-117.188;2023-04-07T06:47:39;9.82;;;2.50;;
37847;SDS011;23688;33.130;-117.188;2023-04-07T06:50:05;6.85;;;2.67;;
37847;SDS011;23688;33.130;-117.188;2023-04-07T06:52:32;7.63;;;1.75;;
37847;SDS011;23688;33.130;-117.188;2023-04-07T06:54:59;5.10;;;1.90;;
37847;SDS011;23688;33.130;-117.188;2023-04-07T06:57:25;6.78;;;2.17;;
37847;SDS011;23688;33.130;-117.188;2023-04-07T06:59:52;5.25;;;2.00;;
37847;SDS011;23688;33.130;-117.188;2023-04-07T07:02:18;4.65;;;2.22;;
37847;SDS011;23688;33.130;-117.188;2023-04-07T07:04:45;8.07;;;2.67;;
37847;SDS011;23688;33.130;-117.188;2023-04-07T07:07:11;5.60;;;1.85;;
37847;SDS011;23688;33.130;-117.188;2023-04-07T07:09:37;4.50;;;1.90;;
37847;SDS011;23688;33.130;-117.188;2023-04-07T07:12:04;7.60;;;2.38;;
37847;SDS011;23688;33.130;-117.188;2023-04-07T07:14:30;8.25;;;1.95;;
37847;SDS011;23688;33.130;-117.188;2023-04-07T07:16:57;7.18;;;2.05;;
37847;SDS011;23688;33.130;-117.188;2023-04-07T07:19:23;5.95;;;1.95;;
37847;SDS011;23688;33.130;-117.188;2023-04-07T07:21:49;8.40;;;2.80;;
37847;SDS011;23688;33.130;-117.188;2023-04-07T07:24:16;6.07;;;2.60;;
37847;SDS011;23688;33.130;-117.188;2023-04-07T07:26:42;5.55;;;2.75;;
37847;SDS011;23688;33.130;-117.188;2023-04-07T07:29:09;7.53;;;2.40;;
37847;SDS011;23688;33.130;-117.188;2023-04-07T07:31:35;7.82;;;2.88;;
37847;SDS011;23688;33.130;-117.188;2023-04-07T07:34:01;8.82;;;2.42;;
37847;SDS011;23688;33.130;-117.188;2023-04-07T07:36:28;12.27;;;3.28;;
37847;SDS011;23688;33.130;-117.188;2023-04-07T07:38:56;7.72;;;2.50;;
37847;SDS011;23688;33.130;-117.188;2023-04-07T07:41:22;4.55;;;2.42;;
37847;SDS011;23688;33.130;-117.188;2023-04-07T07:43:48;4.47;;;2.30;;
37847;SDS011;23688;33.130;-117.188;2023-04-07T07:46:15;9.48;;;2.80;;
37847;SDS011;23688;33.130;-117.188;2023-04-07T07:48:41;5.88;;;2.58;;
37847;SDS011;23688;33.130;-117.188;2023-04-07T07:51:08;9.85;;;3.22;;
37847;SDS011;23688;33.130;-117.188;2023-04-07T07:53:34;6.57;;;2.58;;
37847;SDS011;23688;33.130;-117.188;2023-04-07T07:56:00;6.80;;;2.78;;
37847;SDS011;23688;33.130;-117.188;2023-04-07T07:58:27;5.70;;;2.13;;
37847;SDS011;23688;33.130;-117.188;2023-04-07T08:00:53;4.65;;;2.08;;
37847;SDS011;23688;33.130;-117.188;2023-04-07T08:03:19;7.28;;;2.55;;
37847;SDS011;23688;33.130;-117.188;2023-04-07T08:05:47;8.50;;;2.10;;
37847;SDS011;23688;33.130;-117.188;2023-04-07T08:08:13;11.40;;;2.80;;
37847;SDS011;23688;33.130;-117.188;2023-04-07T08:10:40;12.10;;;2.72;;
37847;SDS011;23688;33.130;-117.188;2023-04-07T08:13:06;8.38;;;2.83;;
37847;SDS011;23688;33.130;-117.188;2023-04-07T08:15:33;11.73;;;2.38;;
37847;SDS011;23688;33.130;-117.188;2023-04-07T08:17:59;5.63;;;1.80;;
37847;SDS011;23688;33.130;-117.188;2023-04-07T08:20:28;7.78;;;2.28;;
37847;SDS011;23688;33.130;-117.188;2023-04-07T08:22:56;5.45;;;2.17;;
37847;SDS011;23688;33.130;-117.188;2023-04-07T08:25:23;5.13;;;2.92;;
37847;SDS011;23688;33.130;-117.188;2023-04-07T08:27:49;6.28;;;2.20;;
37847;SDS011;23688;33.130;-117.188;2023-04-07T08:30:15;7.95;;;3.08;;
37847;SDS011;23688;33.130;-117.188;2023-04-07T08:32:42;6.88;;;2.30;;
37847;SDS011;23688;33.130;-117.188;2023-04-07T08:35:11;3.90;;;2.05;;
37847;SDS011;23688;33.130;-117.188;2023-04-07T08:37:38;11.10;;;3.45;;
37847;SDS011;23688;33.130;-117.188;2023-04-07T08:40:07;3.25;;;1.65;;
37847;SDS011;23688;33.130;-117.188;2023-04-07T08:42:34;10.82;;;2.22;;
37847;SDS011;23688;33.130;-117.188;2023-04-07T08:45:06;6.47;;;1.90;;
37847;SDS011;23688;33.130;-117.188;2023-04-07T08:47:34;5.03;;;2.13;;
37847;SDS011;23688;33.130;-117.188;2023-04-07T08:50:05;4.57;;;2.15;;
37847;SDS011;23688;33.130;-117.188;2023-04-07T08:52:34;7.00;;;2.13;;
37847;SDS011;23688;33.130;-117.188;2023-04-07T08:55:06;4.97;;;2.63;;
37847;SDS011;23688;33.130;-117.188;2023-04-07T08:57:33;5.75;;;2.67;;
37847;SDS011;23688;33.130;-117.188;2023-04-07T09:00:02;10.20;;;2.55;;
37847;SDS011;23688;33.130;-117.188;2023-04-07T09:02:36;5.80;;;2.00;;
37847;SDS011;23688;33.130;-117.188;2023-04-07T09:05:08;6.93;;;2.60;;
37847;SDS011;23688;33.130;-117.188;2023-04-07T09:07:36;6.03;;;2.70;;
37847;SDS011;23688;33.130;-117.188;2023-04-07T09:12:31;6.70;;;2.03;;
37847;SDS011;23688;33.130;-117.188;2023-04-07T09:14:59;4.72;;;2.13;;
37847;SDS011;23688;33.130;-117.188;2023-04-07T09:17:26;6.80;;;2.65;;
37847;SDS011;23688;33.130;-117.188;2023-04-07T09:20:00;5.88;;;3.13;;
37847;SDS011;23688;33.130;-117.188;2023-04-07T09:22:36;6.55;;;2.60;;
37847;SDS011;23688;33.130;-117.188;2023-04-07T09:25:17;11.02;;;3.67;;
37847;SDS011;23688;33.130;-117.188;2023-04-07T09:30:39;12.45;;;2.85;;
37847;SDS011;23688;33.130;-117.188;2023-04-07T09:33:25;11.43;;;2.80;;
37847;SDS011;23688;33.130;-117.188;2023-04-07T09:35:53;6.80;;;2.60;;
37847;SDS011;23688;33.130;-117.188;2023-04-07T09:38:19;6.28;;;2.60;;
37847;SDS011;23688;33.130;-117.188;2023-04-07T09:40:46;4.65;;;2.70;;
37847;SDS011;23688;33.130;-117.188;2023-04-07T09:43:16;13.60;;;3.83;;
37847;SDS011;23688;33.130;-117.188;2023-04-07T09:45:43;7.23;;;3.10;;
37847;SDS011;23688;33.130;-117.188;2023-04-07T09:48:19;8.25;;;2.28;;
37847;SDS011;23688;33.130;-117.188;2023-04-07T09:50:46;6.13;;;2.35;;
37847;SDS011;23688;33.130;-117.188;2023-04-07T09:53:16;5.82;;;2.55;;
37847;SDS011;23688;33.130;-117.188;2023-04-07T09:55:47;7.05;;;2.60;;
37847;SDS011;23688;33.130;-117.188;2023-04-07T09:58:14;6.50;;;2.50;;
37847;SDS011;23688;33.130;-117.188;2023-04-07T10:00:41;12.63;;;3.10;;
37847;SDS011;23688;33.130;-117.188;2023-04-07T10:03:08;6.97;;;2.80;;
37847;SDS011;23688;33.130;-117.188;2023-04-07T10:05:34;9.52;;;3.15;;
37847;SDS011;23688;33.130;-117.188;2023-04-07T10:08:03;7.55;;;2.47;;
37847;SDS011;23688;33.130;-117.188;2023-04-07T10:10:31;10.68;;;3.00;;
37847;SDS011;23688;33.130;-117.188;2023-04-07T10:12:58;7.35;;;2.65;;
37847;SDS011;23688;33.130;-117.188;2023-04-07T10:15:24;5.53;;;3.05;;
37847;SDS011;23688;33.130;-117.188;2023-04-07T10:17:51;25.45;;;3.10;;
37847;SDS011;23688;33.130;-117.188;2023-04-07T10:20:20;4.72;;;2.58;;
37847;SDS011;23688;33.130;-117.188;2023-04-07T10:22:48;5.47;;;2.60;;
37847;SDS011;23688;33.130;-117.188;2023-04-07T10:25:18;4.00;;;2.28;;
37847;SDS011;23688;33.130;-117.188;2023-04-07T10:27:53;9.00;;;2.60;;
37847;SDS011;23688;33.130;-117.188;2023-04-07T10:30:31;9.07;;;3.22;;
37847;SDS011;23688;33.130;-117.188;2023-04-07T10:32:59;9.23;;;2.53;;
37847;SDS011;23688;33.130;-117.188;2023-04-07T10:35:26;7.20;;;2.78;;
37847;SDS011;23688;33.130;-117.188;2023-04-07T10:40:32;8.75;;;2.92;;
37847;SDS011;23688;33.130;-117.188;2023-04-07T10:42:59;9.48;;;3.28;;
37847;SDS011;23688;33.130;-117.188;2023-04-07T10:48:24;10.88;;;3.47;;
37847;SDS011;23688;33.130;-117.188;2023-04-07T10:53:32;8.45;;;2.97;;
37847;SDS011;23688;33.130;-117.188;2023-04-07T10:55:59;6.13;;;2.97;;
37847;SDS011;23688;33.130;-117.188;2023-04-07T10:58:26;6.53;;;3.17;;
37847;SDS011;23688;33.130;-117.188;2023-04-07T11:03:25;5.65;;;2.78;;
37847;SDS011;23688;33.130;-117.188;2023-04-07T11:06:14;4.30;;;2.60;;
37847;SDS011;23688;33.130;-117.188;2023-04-07T11:08:43;10.27;;;2.67;;
37847;SDS011;23688;33.130;-117.188;2023-04-07T11:11:13;6.10;;;2.40;;
37847;SDS011;23688;33.130;-117.188;2023-04-07T11:16:09;7.50;;;2.85;;
37847;SDS011;23688;33.130;-117.188;2023-04-07T11:18:36;11.82;;;2.92;;
37847;SDS011;23688;33.130;-117.188;2023-04-07T11:21:03;7.18;;;2.72;;
37847;SDS011;23688;33.130;-117.188;2023-04-07T11:23:41;14.60;;;3.65;;
37847;SDS011;23688;33.130;-117.188;2023-04-07T11:28:46;5.00;;;2.55;;
37847;SDS011;23688;33.130;-117.188;2023-04-07T11:31:29;8.05;;;3.22;;
37847;SDS011;23688;33.130;-117.188;2023-04-07T11:33:57;9.75;;;2.90;;
37847;SDS011;23688;33.130;-117.188;2023-04-07T11:36:32;7.50;;;2.38;;
37847;SDS011;23688;33.130;-117.188;2023-04-07T11:39:00;9.50;;;2.20;;
37847;SDS011;23688;33.130;-117.188;2023-04-07T11:41:28;6.47;;;2.80;;
37847;SDS011;23688;33.130;-117.188;2023-04-07T11:44:10;7.13;;;2.78;;
37847;SDS011;23688;33.130;-117.188;2023-04-07T11:46:58;5.13;;;3.00;;
37847;SDS011;23688;33.130;-117.188;2023-04-07T11:49:29;8.57;;;2.47;;
37847;SDS011;23688;33.130;-117.188;2023-04-07T11:52:00;7.13;;;2.40;;
37847;SDS011;23688;33.130;-117.188;2023-04-07T11:54:40;8.98;;;3.03;;
37847;SDS011;23688;33.130;-117.188;2023-04-07T11:57:07;4.47;;;2.30;;
37847;SDS011;23688;33.130;-117.188;2023-04-07T11:59:36;6.05;;;2.42;;
37847;SDS011;23688;33.130;-117.188;2023-04-07T12:04:32;5.80;;;2.47;;
37847;SDS011;23688;33.130;-117.188;2023-04-07T12:07:10;9.43;;;2.72;;
37847;SDS011;23688;33.130;-117.188;2023-04-07T12:09:36;5.25;;;2.50;;
37847;SDS011;23688;33.130;-117.188;2023-04-07T12:12:03;9.02;;;3.17;;
37847;SDS011;23688;33.130;-117.188;2023-04-07T12:14:31;6.15;;;2.92;;
37847;SDS011;23688;33.130;-117.188;2023-04-07T12:16:58;6.95;;;2.42;;
37847;SDS011;23688;33.130;-117.188;2023-04-07T12:21:54;7.28;;;2.53;;
37847;SDS011;23688;33.130;-117.188;2023-04-07T12:24:21;7.20;;;2.58;;
37847;SDS011;23688;33.130;-117.188;2023-04-07T12:26:48;5.90;;;2.42;;
37847;SDS011;23688;33.130;-117.188;2023-04-07T12:29:17;3.78;;;2.25;;
37847;SDS011;23688;33.130;-117.188;2023-04-07T12:31:47;4.68;;;2.63;;
37847;SDS011;23688;33.130;-117.188;2023-04-07T12:34:13;8.45;;;2.72;;
37847;SDS011;23688;33.130;-117.188;2023-04-07T12:36:40;7.22;;;2.92;;
37847;SDS011;23688;33.130;-117.188;2023-04-07T12:39:06;6.40;;;3.50;;
37847;SDS011;23688;33.130;-117.188;2023-04-07T12:41:33;8.23;;;2.50;;
37847;SDS011;23688;33.130;-117.188;2023-04-07T12:43:59;4.07;;;2.65;;
37847;SDS011;23688;33.130;-117.188;2023-04-07T12:46:25;6.78;;;3.00;;
37847;SDS011;23688;33.130;-117.188;2023-04-07T12:48:51;7.13;;;2.97;;
37847;SDS011;23688;33.130;-117.188;2023-04-07T12:51:18;13.13;;;2.97;;
37847;SDS011;23688;33.130;-117.188;2023-04-07T12:53:44;8.32;;;2.83;;
37847;SDS011;23688;33.130;-117.188;2023-04-07T12:56:11;4.95;;;2.97;;
37847;SDS011;23688;33.130;-117.188;2023-04-07T12:58:38;8.02;;;3.05;;
37847;SDS011;23688;33.130;-117.188;2023-04-07T13:01:05;7.88;;;2.92;;
37847;SDS011;23688;33.130;-117.188;2023-04-07T13:03:32;5.50;;;2.38;;
37847;SDS011;23688;33.130;-117.188;2023-04-07T13:05:58;13.38;;;3.05;;
37847;SDS011;23688;33.130;-117.188;2023-04-07T13:08:26;12.65;;;3.47;;
37847;SDS011;23688;33.130;-117.188;2023-04-07T13:10:53;9.50;;;3.30;;
37847;SDS011;23688;33.130;-117.188;2023-04-07T13:13:21;6.85;;;2.92;;
37847;SDS011;23688;33.130;-117.188;2023-04-07T13:15:48;9.35;;;3.17;;
37847;SDS011;23688;33.130;-117.188;2023-04-07T13:18:14;7.55;;;2.92;;
37847;SDS011;23688;33.130;-117.188;2023-04-07T13:20:40;11.15;;;3.28;;
37847;SDS011;23688;33.130;-117.188;2023-04-07T13:23:07;13.90;;;3.03;;
37847;SDS011;23688;33.130;-117.188;2023-04-07T13:25:33;13.07;;;3.35;;
37847;SDS011;23688;33.130;-117.188;2023-04-07T13:28:00;8.20;;;3.08;;
37847;SDS011;23688;33.130;-117.188;2023-04-07T13:30:26;9.95;;;2.97;;
37847;SDS011;23688;33.130;-117.188;2023-04-07T13:32:52;6.35;;;2.80;;
37847;SDS011;23688;33.130;-117.188;2023-04-07T13:35:19;11.05;;;2.92;;
37847;SDS011;23688;33.130;-117.188;2023-04-07T13:37:45;11.77;;;2.92;;
37847;SDS011;23688;33.130;-117.188;2023-04-07T13:40:11;9.80;;;2.95;;
37847;SDS011;23688;33.130;-117.188;2023-04-07T13:42:38;12.85;;;3.20;;
37847;SDS011;23688;33.130;-117.188;2023-04-07T13:45:05;11.68;;;2.80;;
37847;SDS011;23688;33.130;-117.188;2023-04-07T13:47:32;9.02;;;2.95;;
37847;SDS011;23688;33.130;-117.188;2023-04-07T13:49:59;6.35;;;2.60;;
37847;SDS011;23688;33.130;-117.188;2023-04-07T13:52:26;6.22;;;2.58;;
37847;SDS011;23688;33.130;-117.188;2023-04-07T13:54:53;10.27;;;2.90;;
37847;SDS011;23688;33.130;-117.188;2023-04-07T13:57:19;6.45;;;2.70;;
37847;SDS011;23688;33.130;-117.188;2023-04-07T13:59:47;10.43;;;3.00;;
37847;SDS011;23688;33.130;-117.188;2023-04-07T14:02:16;6.55;;;2.67;;
37847;SDS011;23688;33.130;-117.188;2023-04-07T14:04:43;6.88;;;2.92;;
37847;SDS011;23688;33.130;-117.188;2023-04-07T14:07:10;12.00;;;3.25;;
37847;SDS011;23688;33.130;-117.188;2023-04-07T14:09:36;12.80;;;3.58;;
37847;SDS011;23688;33.130;-117.188;2023-04-07T14:12:03;21.17;;;3.42;;
37847;SDS011;23688;33.130;-117.188;2023-04-07T14:14:30;17.15;;;3.88;;
37847;SDS011;23688;33.130;-117.188;2023-04-07T14:16:57;9.23;;;2.88;;
37847;SDS011;23688;33.130;-117.188;2023-04-07T14:19:23;15.65;;;2.90;;
37847;SDS011;23688;33.130;-117.188;2023-04-07T14:21:50;12.20;;;3.10;;
37847;SDS011;23688;33.130;-117.188;2023-04-07T14:24:16;7.50;;;3.45;;
37847;SDS011;23688;33.130;-117.188;2023-04-07T14:26:43;13.80;;;3.00;;
37847;SDS011;23688;33.130;-117.188;2023-04-07T14:29:12;9.68;;;2.88;;
37847;SDS011;23688;33.130;-117.188;2023-04-07T14:31:39;14.50;;;3.17;;
37847;SDS011;23688;33.130;-117.188;2023-04-07T14:34:05;9.00;;;3.05;;
37847;SDS011;23688;33.130;-117.188;2023-04-07T14:36:32;5.65;;;2.50;;
37847;SDS011;23688;33.130;-117.188;2023-04-07T14:38:59;9.63;;;3.53;;
37847;SDS011;23688;33.130;-117.188;2023-04-07T14:41:26;12.85;;;3.35;;
37847;SDS011;23688;33.130;-117.188;2023-04-07T14:43:54;6.85;;;3.33;;
37847;SDS011;23688;33.130;-117.188;2023-04-07T14:46:21;13.32;;;3.00;;
37847;SDS011;23688;33.130;-117.188;2023-04-07T14:48:48;18.15;;;3.10;;
37847;SDS011;23688;33.130;-117.188;2023-04-07T14:51:16;17.55;;;3.78;;